Terminal Aerodrome Forecast
Issued by NWS Charleston, SC

Home | Current Version | Previous Version | Text Only | Print | Product List | Glossary On
Versions: 1 2 3 4 5 6 7 8 9 10 11 12 13
000
FTUS42 KCHS 262336
TAFCHS
TAF
KCHS 262336Z 2700/2724 17008KT P6SM SCT040
     FM270900 15004KT P6SM SCT010 BKN025
     FM271300 17009KT P6SM SCT040=

USA.gov is the U.S. government's official web portal to all federal, state and local government web resources and services.